createdAt,value
2023-04-03T00:00:18.848Z,2.09
2023-04-03T00:05:20.710Z,2.05
2023-04-03T00:10:22.510Z,2.00
2023-04-03T00:15:24.079Z,1.92
2023-04-03T00:20:25.724Z,1.85
2023-04-03T00:25:28.376Z,1.78
2023-04-03T00:30:30.136Z,1.69
2023-04-03T00:35:31.867Z,1.60
2023-04-03T00:40:40.051Z,1.56
2023-04-03T00:45:44.329Z,1.46
2023-04-03T00:50:48.439Z,1.36
2023-04-03T00:55:52.014Z,1.32
2023-04-03T01:00:58.976Z,1.21
2023-04-03T01:06:00.957Z,1.11
2023-04-03T01:11:02.524Z,1.04
2023-04-03T01:16:07.835Z,0.97
2023-04-03T01:21:47.928Z,0.88
2023-04-03T01:26:51.385Z,0.81
2023-04-03T01:31:58.999Z,0.76
2023-04-03T01:37:00.572Z,0.69
2023-04-03T01:42:02.158Z,0.60
2023-04-03T01:47:07.109Z,0.52
2023-04-03T01:52:08.601Z,0.47
2023-04-03T01:57:10.233Z,0.38
2023-04-03T02:02:13.454Z,0.31
2023-04-03T02:07:14.978Z,0.25
2023-04-03T02:12:16.861Z,0.17
2023-04-03T02:17:18.655Z,0.09
2023-04-03T02:22:21.211Z,0.03
2023-04-03T02:27:22.841Z,-0.04
2023-04-03T02:32:24.860Z,-0.08
2023-04-03T02:37:26.701Z,-0.16
2023-04-03T02:42:29.076Z,-0.19
2023-04-03T02:47:30.852Z,-0.22
2023-04-03T02:52:33.007Z,-0.28
2023-04-03T02:57:34.566Z,-0.33
2023-04-03T03:02:36.480Z,-0.40
2023-04-03T03:07:38.117Z,-0.44
2023-04-03T03:12:39.595Z,-0.48
2023-04-03T03:17:41.186Z,-0.52
2023-04-03T03:22:42.877Z,-0.55
2023-04-03T03:27:44.549Z,-0.64
2023-04-03T03:32:46.456Z,-0.68
2023-04-03T03:37:48.057Z,-0.76
2023-04-03T03:42:49.846Z,-0.81
2023-04-03T03:47:51.384Z,-0.87
2023-04-03T03:52:53.079Z,-0.95
2023-04-03T03:57:54.709Z,-0.91
2023-04-03T04:02:58.728Z,-0.90
2023-04-03T04:08:00.988Z,-0.96
2023-04-03T04:13:02.556Z,-1.03
2023-04-03T04:18:04.654Z,-1.08
2023-04-03T04:23:06.304Z,-1.09
2023-04-03T04:28:07.856Z,-1.11
2023-04-03T04:33:09.579Z,-1.03
2023-04-03T04:38:11.579Z,-1.01
2023-04-03T04:43:15.893Z,-0.98
2023-04-03T04:48:17.560Z,-0.98
2023-04-03T04:53:19.200Z,-1.00
2023-04-03T04:58:21.292Z,-1.00
2023-04-03T05:03:22.803Z,-0.94
2023-04-03T05:08:24.699Z,-0.88
2023-04-03T05:13:26.337Z,-0.88
2023-04-03T05:18:27.855Z,-0.86
2023-04-03T05:23:29.342Z,-0.91
2023-04-03T05:28:31.232Z,-0.90
2023-04-03T05:33:32.903Z,-0.95
2023-04-03T05:38:34.999Z,-0.97
2023-04-03T05:43:38.811Z,-0.92
2023-04-03T05:48:40.870Z,-0.97
2023-04-03T05:53:44.411Z,-0.96
2023-04-03T05:58:45.919Z,-0.98
2023-04-03T06:03:47.494Z,-1.03
2023-04-03T06:08:49.428Z,-0.99
2023-04-03T06:13:50.943Z,-0.91
2023-04-03T06:18:52.414Z,-0.92
2023-04-03T06:23:53.935Z,-0.87
2023-04-03T06:28:55.507Z,-0.81
2023-04-03T06:33:57.543Z,-0.70
2023-04-03T06:38:59.022Z,-0.61
2023-04-03T06:44:00.590Z,-0.49
2023-04-03T06:49:02.569Z,-0.35
2023-04-03T06:54:06.900Z,-0.20
2023-04-03T06:59:09.598Z,-0.12
2023-04-03T07:04:11.412Z,-0.01
2023-04-03T07:09:13.348Z,0.13
2023-04-03T07:14:14.857Z,0.26
2023-04-03T07:19:16.688Z,0.26
2023-04-03T07:24:18.169Z,0.37
2023-04-03T07:29:22.596Z,0.49
2023-04-03T07:34:24.320Z,0.64
2023-04-03T07:39:26.550Z,0.81
2023-04-03T07:44:28.522Z,0.95
2023-04-03T07:49:30.075Z,1.12
2023-04-03T07:54:31.850Z,1.22
2023-04-03T07:59:33.742Z,1.26
2023-04-03T08:04:36.179Z,1.32
2023-04-03T08:09:38.057Z,1.47
2023-04-03T08:14:39.601Z,1.74
2023-04-03T08:19:41.699Z,1.73
2023-04-03T08:24:52.541Z,1.63
2023-04-03T08:30:00.983Z,1.78
2023-04-03T08:35:03.348Z,1.98
2023-04-03T08:40:09.059Z,1.92
2023-04-03T08:45:16.942Z,2.05
2023-04-03T08:50:23.040Z,2.33
2023-04-03T08:55:36.323Z,2.39
2023-04-03T09:00:52.925Z,2.46
2023-04-03T09:05:57.093Z,2.40
2023-04-03T09:11:10.593Z,2.30
2023-04-03T09:16:26.722Z,2.53
2023-04-03T09:21:48.946Z,2.83
2023-04-03T09:27:05.230Z,2.81
2023-04-03T09:32:35.330Z,2.80
2023-04-03T09:37:41.684Z,2.94
2023-04-03T09:42:46.294Z,3.08
2023-04-03T09:48:06.771Z,3.16
2023-04-03T09:53:28.609Z,3.30
2023-04-03T09:58:49.102Z,3.32
2023-04-03T10:04:07.295Z,3.44
2023-04-03T10:09:35.604Z,3.74
2023-04-03T10:14:55.316Z,3.80
2023-04-03T10:20:02.649Z,3.38
2023-04-03T10:25:43.011Z,3.74
2023-04-03T10:30:53.509Z,3.76
2023-04-03T10:36:19.081Z,3.47
2023-04-03T10:42:16.655Z,3.53
2023-04-03T10:47:25.823Z,3.78
2023-04-03T10:52:47.693Z,3.87
2023-04-03T10:57:50.278Z,3.67
2023-04-03T11:03:04.136Z,3.86
2023-04-03T11:08:13.408Z,3.66
2023-04-03T11:13:18.373Z,3.63
2023-04-03T11:18:25.327Z,3.79
2023-04-03T11:23:32.735Z,4.02
2023-04-03T11:28:41.816Z,4.19
2023-04-03T11:33:52.616Z,4.40
2023-04-03T11:38:58.855Z,4.49
2023-04-03T11:44:27.897Z,4.55
2023-04-03T11:49:54.764Z,4.68
2023-04-03T11:54:56.520Z,4.52
2023-04-03T11:59:58.366Z,4.45
2023-04-03T12:05:37.163Z,4.50
2023-04-03T12:10:39.037Z,4.44
2023-04-03T12:15:40.645Z,4.31
2023-04-03T12:20:59.638Z,4.41
2023-04-03T12:26:07.548Z,4.42
2023-04-03T12:31:11.874Z,4.60
2023-04-03T12:36:27.292Z,4.64
2023-04-03T12:41:44.395Z,4.65
2023-04-03T12:46:50.983Z,4.61
2023-04-03T12:51:53.207Z,4.75
2023-04-03T12:57:30.249Z,4.93
2023-04-03T13:02:38.451Z,4.80
2023-04-03T13:07:41.956Z,4.76
2023-04-03T13:12:51.785Z,5.08
2023-04-03T13:17:55.079Z,5.40
2023-04-03T13:23:18.542Z,5.43
2023-04-03T13:28:25.746Z,5.09
2023-04-03T13:33:32.418Z,5.35
2023-04-03T13:38:35.143Z,5.58
2023-04-03T13:43:38.161Z,5.63
2023-04-03T13:48:52.265Z,5.41
2023-04-03T13:53:58.557Z,5.23
2023-04-03T13:59:20.926Z,5.46
2023-04-03T14:04:27.396Z,5.37
2023-04-03T14:09:29.259Z,5.19
2023-04-03T14:14:36.536Z,5.13
2023-04-03T14:19:38.037Z,5.12
2023-04-03T14:24:40.306Z,5.02
2023-04-03T14:29:42.357Z,4.96
2023-04-03T14:34:44.549Z,4.98
2023-04-03T14:39:47.077Z,4.85
2023-04-03T14:44:49.281Z,4.72
2023-04-03T14:49:50.945Z,4.72
2023-04-03T14:54:54.402Z,4.69
2023-04-03T14:59:56.079Z,4.64
2023-04-03T15:04:58.671Z,4.63
2023-04-03T15:10:14.698Z,4.63
2023-04-03T15:15:18.496Z,4.69
2023-04-03T15:20:24.165Z,4.61
2023-04-03T15:25:26.971Z,4.60
2023-04-03T15:30:28.508Z,4.46
2023-04-03T15:35:30.094Z,4.38
2023-04-03T15:40:31.693Z,4.27
2023-04-03T15:45:36.031Z,4.21
2023-04-03T15:50:37.888Z,4.30
2023-04-03T15:55:40.425Z,4.31
2023-04-03T16:00:42.781Z,4.20
2023-04-03T16:05:44.765Z,4.18
2023-04-03T16:10:47.234Z,4.18
2023-04-03T16:15:49.877Z,4.14
2023-04-03T16:20:51.744Z,4.07
2023-04-03T16:25:53.508Z,3.93
2023-04-03T16:30:55.062Z,3.84
2023-04-03T16:35:56.598Z,3.77
2023-04-03T16:41:00.377Z,3.69
2023-04-03T16:46:03.473Z,3.68
2023-04-03T16:51:05.243Z,3.59
2023-04-03T16:56:06.786Z,3.53
2023-04-03T17:01:14.545Z,3.39
2023-04-03T17:06:24.276Z,3.30
2023-04-03T17:11:26.755Z,3.25
2023-04-03T17:16:29.977Z,3.22
2023-04-03T17:21:33.245Z,3.19
2023-04-03T17:26:37.509Z,3.18
2023-04-03T17:31:39.147Z,3.17
2023-04-03T17:36:41.757Z,3.16
2023-04-03T17:41:45.986Z,3.15
2023-04-03T17:46:47.645Z,3.11
2023-04-03T17:51:49.335Z,3.07
2023-04-03T17:56:50.976Z,3.00
2023-04-03T18:01:53.402Z,2.97
2023-04-03T18:06:56.087Z,2.92
2023-04-03T18:11:58.200Z,2.89
2023-04-03T18:16:59.744Z,2.87
2023-04-03T18:22:05.333Z,2.82
2023-04-03T18:27:12.989Z,2.81
2023-04-03T18:32:17.930Z,2.77
2023-04-03T18:37:20.979Z,2.75
2023-04-03T18:42:26.007Z,2.73
2023-04-03T18:47:29.027Z,2.66
2023-04-03T18:52:30.636Z,2.62
2023-04-03T18:57:32.218Z,2.60
2023-04-03T19:02:34.222Z,2.53
2023-04-03T19:07:35.948Z,2.50
2023-04-03T19:12:37.472Z,2.49
2023-04-03T19:17:39.348Z,2.45
2023-04-03T19:22:41.817Z,2.43
2023-04-03T19:27:43.346Z,2.42
2023-04-03T19:32:44.907Z,2.41
2023-04-03T19:37:50.823Z,2.37
2023-04-03T19:42:52.872Z,2.36
2023-04-03T19:47:54.731Z,2.31
2023-04-03T19:52:56.345Z,2.24
2023-04-03T19:57:59.733Z,2.18
2023-04-03T20:03:01.775Z,2.12
2023-04-03T20:08:03.861Z,2.02
2023-04-03T20:13:08.624Z,1.96
2023-04-03T20:18:18.829Z,1.90
2023-04-03T20:23:21.056Z,1.87
2023-04-03T20:28:23.121Z,1.84
2023-04-03T20:33:28.146Z,1.80
2023-04-03T20:38:29.987Z,1.75
2023-04-03T20:43:31.529Z,1.70
2023-04-03T20:48:33.016Z,1.67
2023-04-03T20:53:34.764Z,1.64
2023-04-03T20:58:39.002Z,1.64
2023-04-03T21:03:40.916Z,1.61
2023-04-03T21:09:20.837Z,1.60
2023-04-03T21:15:00.170Z,1.55
2023-04-03T21:20:01.718Z,1.53
2023-04-03T21:25:03.492Z,1.52
2023-04-03T21:30:06.374Z,1.50
2023-04-03T21:35:09.524Z,1.50
2023-04-03T21:40:11.601Z,1.48
2023-04-03T21:45:16.204Z,1.44
2023-04-03T21:50:19.379Z,1.45
2023-04-03T21:55:20.890Z,1.44
2023-04-03T22:00:28.868Z,1.40
2023-04-03T22:05:32.159Z,1.34
2023-04-03T22:10:34.266Z,1.28
2023-04-03T22:15:42.875Z,1.24
2023-04-03T22:20:44.718Z,1.23
2023-04-03T22:26:03.671Z,1.20
2023-04-03T22:31:09.839Z,1.16
2023-04-03T22:36:13.554Z,1.13
2023-04-03T22:41:15.105Z,1.06
2023-04-03T22:46:16.693Z,1.01
2023-04-03T22:51:18.237Z,0.96
2023-04-03T22:56:19.923Z,0.97
2023-04-03T23:01:24.147Z,0.96
2023-04-03T23:06:26.755Z,0.92
2023-04-03T23:11:28.245Z,0.88
2023-04-03T23:16:29.825Z,0.83
2023-04-03T23:21:31.525Z,0.77
2023-04-03T23:26:32.994Z,0.76
2023-04-03T23:31:34.506Z,0.73
2023-04-03T23:36:36.358Z,0.71
2023-04-03T23:41:37.848Z,0.71
2023-04-03T23:46:39.583Z,0.69
2023-04-03T23:51:41.328Z,0.57
2023-04-03T23:56:42.797Z,0.52
